Willernie, Minnesota
Current Conditions -  °F | °C
As of 8:31 PM on Wednesday 26 Nov 2014 (Local Time) from K21D Reporting Station
Overcast Overcast  
Wind Chill: 13°   Ceiling: 7000
Heat Index: 21°   Visibility: 10mi
Dew Point: 14°   Wind: 7mph
Humidity: 74%   Direction: 350°N
Pressure: 30.31"   Gusts: NA
Location:  45.05°N, 92.96°W
Report Text: K21D 270231Z AUTO 35006KT 10SM OVC070 M06/M10 A3031 RMK AO2
Loading
Personal Weather Stations






























Interactive Weather Map New forecast layout! Learn more

10-Day Weather Forecast

Advertisements
Track Severe Weather on mobile